sensor_id;sensor_type;location;lat;lon;timestamp;temperature;humidity
75769;DHT22;64379;48.888;8.330;2024-02-04T00:00:43;8.00;74.90
75769;DHT22;64379;48.888;8.330;2024-02-04T00:03:08;8.00;74.90
75769;DHT22;64379;48.888;8.330;2024-02-04T00:05:34;8.10;74.80
75769;DHT22;64379;48.888;8.330;2024-02-04T00:07:59;8.10;74.60
75769;DHT22;64379;48.888;8.330;2024-02-04T00:10:25;8.10;74.50
75769;DHT22;64379;48.888;8.330;2024-02-04T00:12:52;8.10;74.20
75769;DHT22;64379;48.888;8.330;2024-02-04T00:15:17;8.20;74.10
75769;DHT22;64379;48.888;8.330;2024-02-04T00:17:43;8.20;74.00
75769;DHT22;64379;48.888;8.330;2024-02-04T00:20:09;8.20;73.90
75769;DHT22;64379;48.888;8.330;2024-02-04T00:22:35;8.30;73.50
75769;DHT22;64379;48.888;8.330;2024-02-04T00:25:01;8.40;73.40
75769;DHT22;64379;48.888;8.330;2024-02-04T00:27:35;8.40;73.40
75769;DHT22;64379;48.888;8.330;2024-02-04T00:30:01;8.40;72.90
75769;DHT22;64379;48.888;8.330;2024-02-04T00:32:26;8.50;72.90
75769;DHT22;64379;48.888;8.330;2024-02-04T00:34:52;8.50;72.60
75769;DHT22;64379;48.888;8.330;2024-02-04T00:37:18;8.50;72.50
75769;DHT22;64379;48.888;8.330;2024-02-04T00:39:44;8.50;72.30
75769;DHT22;64379;48.888;8.330;2024-02-04T00:42:10;8.50;72.00
75769;DHT22;64379;48.888;8.330;2024-02-04T00:44:36;8.50;71.90
75769;DHT22;64379;48.888;8.330;2024-02-04T00:47:01;8.50;71.70
75769;DHT22;64379;48.888;8.330;2024-02-04T00:49:27;8.50;71.50
75769;DHT22;64379;48.888;8.330;2024-02-04T00:51:53;8.50;71.60
75769;DHT22;64379;48.888;8.330;2024-02-04T00:54:19;8.50;71.60
75769;DHT22;64379;48.888;8.330;2024-02-04T00:56:44;8.50;71.70
75769;DHT22;64379;48.888;8.330;2024-02-04T00:59:10;8.50;71.70
75769;DHT22;64379;48.888;8.330;2024-02-04T01:01:37;8.40;71.70
75769;DHT22;64379;48.888;8.330;2024-02-04T01:04:03;8.50;71.70
75769;DHT22;64379;48.888;8.330;2024-02-04T01:06:28;8.50;71.60
75769;DHT22;64379;48.888;8.330;2024-02-04T01:08:56;8.40;71.60
75769;DHT22;64379;48.888;8.330;2024-02-04T01:11:21;8.40;71.60
75769;DHT22;64379;48.888;8.330;2024-02-04T01:13:47;8.40;71.50
75769;DHT22;64379;48.888;8.330;2024-02-04T01:16:13;8.50;71.50
75769;DHT22;64379;48.888;8.330;2024-02-04T01:18:39;8.50;71.20
75769;DHT22;64379;48.888;8.330;2024-02-04T01:21:04;8.50;71.50
75769;DHT22;64379;48.888;8.330;2024-02-04T01:23:30;8.50;71.20
75769;DHT22;64379;48.888;8.330;2024-02-04T01:25:56;8.50;71.20
75769;DHT22;64379;48.888;8.330;2024-02-04T01:28:21;8.50;71.20
75769;DHT22;64379;48.888;8.330;2024-02-04T01:30:47;8.50;71.20
75769;DHT22;64379;48.888;8.330;2024-02-04T01:33:12;8.40;71.20
75769;DHT22;64379;48.888;8.330;2024-02-04T01:35:38;8.40;71.30
75769;DHT22;64379;48.888;8.330;2024-02-04T01:38:03;8.40;71.50
75769;DHT22;64379;48.888;8.330;2024-02-04T01:40:29;8.40;71.30
75769;DHT22;64379;48.888;8.330;2024-02-04T01:42:55;8.40;71.60
75769;DHT22;64379;48.888;8.330;2024-02-04T01:45:21;8.30;71.80
75769;DHT22;64379;48.888;8.330;2024-02-04T01:47:47;8.30;71.90
75769;DHT22;64379;48.888;8.330;2024-02-04T01:50:14;8.30;71.90
75769;DHT22;64379;48.888;8.330;2024-02-04T01:52:40;8.30;71.90
75769;DHT22;64379;48.888;8.330;2024-02-04T01:55:06;8.30;72.00
75769;DHT22;64379;48.888;8.330;2024-02-04T01:57:33;8.30;71.90
75769;DHT22;64379;48.888;8.330;2024-02-04T02:00:00;8.20;72.10
75769;DHT22;64379;48.888;8.330;2024-02-04T02:02:26;8.30;72.00
75769;DHT22;64379;48.888;8.330;2024-02-04T02:04:52;8.30;72.20
75769;DHT22;64379;48.888;8.330;2024-02-04T02:07:18;8.20;72.30
75769;DHT22;64379;48.888;8.330;2024-02-04T02:09:47;8.20;72.30
75769;DHT22;64379;48.888;8.330;2024-02-04T02:12:16;8.20;72.20
75769;DHT22;64379;48.888;8.330;2024-02-04T02:14:46;8.20;72.20
75769;DHT22;64379;48.888;8.330;2024-02-04T02:17:17;8.30;72.10
75769;DHT22;64379;48.888;8.330;2024-02-04T02:19:54;8.30;72.00
75769;DHT22;64379;48.888;8.330;2024-02-04T02:22:50;8.30;72.00
75769;DHT22;64379;48.888;8.330;2024-02-04T02:25:19;8.30;71.70
75769;DHT22;64379;48.888;8.330;2024-02-04T02:27:51;8.30;71.90
75769;DHT22;64379;48.888;8.330;2024-02-04T02:30:17;8.30;72.00
75769;DHT22;64379;48.888;8.330;2024-02-04T02:32:44;8.20;72.00
75769;DHT22;64379;48.888;8.330;2024-02-04T02:35:17;8.20;72.10
75769;DHT22;64379;48.888;8.330;2024-02-04T02:38:25;8.20;72.10
75769;DHT22;64379;48.888;8.330;2024-02-04T02:41:04;8.20;72.10
75769;DHT22;64379;48.888;8.330;2024-02-04T02:43:30;8.20;72.10
75769;DHT22;64379;48.888;8.330;2024-02-04T02:45:57;8.20;72.20
75769;DHT22;64379;48.888;8.330;2024-02-04T02:48:24;8.20;72.20
75769;DHT22;64379;48.888;8.330;2024-02-04T02:50:50;8.20;72.30
75769;DHT22;64379;48.888;8.330;2024-02-04T02:53:15;8.20;72.30
75769;DHT22;64379;48.888;8.330;2024-02-04T02:55:44;8.20;72.20
75769;DHT22;64379;48.888;8.330;2024-02-04T02:58:12;8.20;72.00
75769;DHT22;64379;48.888;8.330;2024-02-04T03:00:37;8.20;71.70
75769;DHT22;64379;48.888;8.330;2024-02-04T03:03:03;8.30;71.70
75769;DHT22;64379;48.888;8.330;2024-02-04T03:05:29;8.30;71.60
75769;DHT22;64379;48.888;8.330;2024-02-04T03:07:55;8.20;71.80
75769;DHT22;64379;48.888;8.330;2024-02-04T03:10:20;8.20;72.00
75769;DHT22;64379;48.888;8.330;2024-02-04T03:12:46;8.10;72.20
75769;DHT22;64379;48.888;8.330;2024-02-04T03:15:11;8.00;72.70
75769;DHT22;64379;48.888;8.330;2024-02-04T03:17:37;8.00;73.20
75769;DHT22;64379;48.888;8.330;2024-02-04T03:20:03;8.00;73.40
75769;DHT22;64379;48.888;8.330;2024-02-04T03:22:28;7.80;73.70
75769;DHT22;64379;48.888;8.330;2024-02-04T03:24:54;7.80;73.60
75769;DHT22;64379;48.888;8.330;2024-02-04T03:27:20;7.80;73.50
75769;DHT22;64379;48.888;8.330;2024-02-04T03:29:46;7.80;73.50
75769;DHT22;64379;48.888;8.330;2024-02-04T03:32:12;7.90;73.20
75769;DHT22;64379;48.888;8.330;2024-02-04T03:34:38;8.00;72.70
75769;DHT22;64379;48.888;8.330;2024-02-04T03:37:05;8.00;72.50
75769;DHT22;64379;48.888;8.330;2024-02-04T03:39:30;8.00;72.50
75769;DHT22;64379;48.888;8.330;2024-02-04T03:41:56;8.00;72.50
75769;DHT22;64379;48.888;8.330;2024-02-04T03:44:22;8.10;72.30
75769;DHT22;64379;48.888;8.330;2024-02-04T03:46:48;8.10;72.10
75769;DHT22;64379;48.888;8.330;2024-02-04T03:49:14;8.10;72.00
75769;DHT22;64379;48.888;8.330;2024-02-04T03:51:40;8.10;72.00
75769;DHT22;64379;48.888;8.330;2024-02-04T03:54:05;8.10;71.70
75769;DHT22;64379;48.888;8.330;2024-02-04T03:56:31;8.20;71.60
75769;DHT22;64379;48.888;8.330;2024-02-04T03:58:56;8.20;71.60
75769;DHT22;64379;48.888;8.330;2024-02-04T04:01:22;8.30;71.30
75769;DHT22;64379;48.888;8.330;2024-02-04T04:03:49;8.30;71.10
75769;DHT22;64379;48.888;8.330;2024-02-04T04:06:14;8.30;71.10
75769;DHT22;64379;48.888;8.330;2024-02-04T04:08:40;8.30;70.80
75769;DHT22;64379;48.888;8.330;2024-02-04T04:11:10;8.30;70.80
75769;DHT22;64379;48.888;8.330;2024-02-04T04:13:36;8.30;70.90
75769;DHT22;64379;48.888;8.330;2024-02-04T04:16:03;8.30;71.00
75769;DHT22;64379;48.888;8.330;2024-02-04T04:18:29;8.30;71.00
75769;DHT22;64379;48.888;8.330;2024-02-04T04:20:55;8.30;71.00
75769;DHT22;64379;48.888;8.330;2024-02-04T04:23:21;8.30;71.20
75769;DHT22;64379;48.888;8.330;2024-02-04T04:25:46;8.30;71.20
75769;DHT22;64379;48.888;8.330;2024-02-04T04:28:12;8.20;71.40
75769;DHT22;64379;48.888;8.330;2024-02-04T04:30:37;8.10;71.60
75769;DHT22;64379;48.888;8.330;2024-02-04T04:33:03;8.10;71.50
75769;DHT22;64379;48.888;8.330;2024-02-04T04:35:29;8.10;71.70
75769;DHT22;64379;48.888;8.330;2024-02-04T04:37:54;8.10;71.50
75769;DHT22;64379;48.888;8.330;2024-02-04T04:40:20;8.10;71.80
75769;DHT22;64379;48.888;8.330;2024-02-04T04:42:46;8.10;71.90
75769;DHT22;64379;48.888;8.330;2024-02-04T04:45:11;8.10;71.90
75769;DHT22;64379;48.888;8.330;2024-02-04T04:47:37;8.10;72.00
75769;DHT22;64379;48.888;8.330;2024-02-04T04:50:06;8.20;71.50
75769;DHT22;64379;48.888;8.330;2024-02-04T04:52:32;8.20;71.50
75769;DHT22;64379;48.888;8.330;2024-02-04T04:54:57;8.30;71.20
75769;DHT22;64379;48.888;8.330;2024-02-04T04:57:23;8.20;71.50
75769;DHT22;64379;48.888;8.330;2024-02-04T04:59:49;8.10;71.80
75769;DHT22;64379;48.888;8.330;2024-02-04T05:02:14;8.00;72.10
75769;DHT22;64379;48.888;8.330;2024-02-04T05:04:43;8.00;72.40
75769;DHT22;64379;48.888;8.330;2024-02-04T05:07:10;8.00;72.70
75769;DHT22;64379;48.888;8.330;2024-02-04T05:09:35;7.80;72.90
75769;DHT22;64379;48.888;8.330;2024-02-04T05:12:02;7.90;73.00
75769;DHT22;64379;48.888;8.330;2024-02-04T05:14:28;7.90;73.00
75769;DHT22;64379;48.888;8.330;2024-02-04T05:16:53;7.80;73.30
75769;DHT22;64379;48.888;8.330;2024-02-04T05:19:19;7.80;73.50
75769;DHT22;64379;48.888;8.330;2024-02-04T05:21:44;7.70;73.80
75769;DHT22;64379;48.888;8.330;2024-02-04T05:24:10;7.60;73.80
75769;DHT22;64379;48.888;8.330;2024-02-04T05:26:36;7.60;74.10
75769;DHT22;64379;48.888;8.330;2024-02-04T05:29:01;7.60;74.10
75769;DHT22;64379;48.888;8.330;2024-02-04T05:31:27;7.60;74.30
75769;DHT22;64379;48.888;8.330;2024-02-04T05:33:53;7.60;74.50
75769;DHT22;64379;48.888;8.330;2024-02-04T05:36:18;7.50;74.50
75769;DHT22;64379;48.888;8.330;2024-02-04T05:38:45;7.50;74.70
75769;DHT22;64379;48.888;8.330;2024-02-04T05:41:11;7.50;74.60
75769;DHT22;64379;48.888;8.330;2024-02-04T05:44:02;7.50;74.80
75769;DHT22;64379;48.888;8.330;2024-02-04T05:47:00;7.50;74.80
75769;DHT22;64379;48.888;8.330;2024-02-04T05:49:26;7.50;74.70
75769;DHT22;64379;48.888;8.330;2024-02-04T05:51:51;7.50;74.70
75769;DHT22;64379;48.888;8.330;2024-02-04T05:54:17;7.50;74.90
75769;DHT22;64379;48.888;8.330;2024-02-04T05:56:43;7.50;74.80
75769;DHT22;64379;48.888;8.330;2024-02-04T05:59:08;7.50;74.90
75769;DHT22;64379;48.888;8.330;2024-02-04T06:01:34;7.50;75.00
75769;DHT22;64379;48.888;8.330;2024-02-04T06:04:00;7.50;75.10
75769;DHT22;64379;48.888;8.330;2024-02-04T06:06:25;7.50;75.20
75769;DHT22;64379;48.888;8.330;2024-02-04T06:08:51;7.40;75.10
75769;DHT22;64379;48.888;8.330;2024-02-04T06:11:17;7.40;75.10
75769;DHT22;64379;48.888;8.330;2024-02-04T06:13:44;7.40;75.30
75769;DHT22;64379;48.888;8.330;2024-02-04T06:16:10;7.40;75.30
75769;DHT22;64379;48.888;8.330;2024-02-04T06:18:37;7.40;75.30
75769;DHT22;64379;48.888;8.330;2024-02-04T06:21:04;7.40;75.40
75769;DHT22;64379;48.888;8.330;2024-02-04T06:23:29;7.50;75.30
75769;DHT22;64379;48.888;8.330;2024-02-04T06:25:55;7.50;75.10
75769;DHT22;64379;48.888;8.330;2024-02-04T06:28:21;7.50;75.00
75769;DHT22;64379;48.888;8.330;2024-02-04T06:30:46;7.50;75.00
75769;DHT22;64379;48.888;8.330;2024-02-04T06:33:12;7.50;75.10
75769;DHT22;64379;48.888;8.330;2024-02-04T06:35:38;7.40;75.00
75769;DHT22;64379;48.888;8.330;2024-02-04T06:38:03;7.40;75.20
75769;DHT22;64379;48.888;8.330;2024-02-04T06:40:29;7.40;75.40
75769;DHT22;64379;48.888;8.330;2024-02-04T06:42:54;7.40;75.50
75769;DHT22;64379;48.888;8.330;2024-02-04T06:45:20;7.40;75.60
75769;DHT22;64379;48.888;8.330;2024-02-04T06:47:45;7.30;75.70
75769;DHT22;64379;48.888;8.330;2024-02-04T06:50:12;7.20;75.80
75769;DHT22;64379;48.888;8.330;2024-02-04T06:52:42;7.20;76.10
75769;DHT22;64379;48.888;8.330;2024-02-04T06:55:08;7.20;76.20
75769;DHT22;64379;48.888;8.330;2024-02-04T06:57:34;7.20;76.20
75769;DHT22;64379;48.888;8.330;2024-02-04T07:00:00;7.20;76.20
75769;DHT22;64379;48.888;8.330;2024-02-04T07:02:25;7.20;76.20
75769;DHT22;64379;48.888;8.330;2024-02-04T07:04:51;7.20;76.10
75769;DHT22;64379;48.888;8.330;2024-02-04T07:07:16;7.20;75.90
75769;DHT22;64379;48.888;8.330;2024-02-04T07:09:42;7.20;75.80
75769;DHT22;64379;48.888;8.330;2024-02-04T07:12:08;7.20;75.80
75769;DHT22;64379;48.888;8.330;2024-02-04T07:14:33;7.30;75.80
75769;DHT22;64379;48.888;8.330;2024-02-04T07:16:59;7.30;75.70
75769;DHT22;64379;48.888;8.330;2024-02-04T07:19:24;7.30;75.70
75769;DHT22;64379;48.888;8.330;2024-02-04T07:21:50;7.40;75.60
75769;DHT22;64379;48.888;8.330;2024-02-04T07:24:16;7.50;75.30
75769;DHT22;64379;48.888;8.330;2024-02-04T07:26:41;7.50;74.80
75769;DHT22;64379;48.888;8.330;2024-02-04T07:29:07;7.60;74.50
75769;DHT22;64379;48.888;8.330;2024-02-04T07:31:32;7.60;74.10
75769;DHT22;64379;48.888;8.330;2024-02-04T07:34:03;7.70;74.00
75769;DHT22;64379;48.888;8.330;2024-02-04T07:36:28;7.70;74.00
75769;DHT22;64379;48.888;8.330;2024-02-04T07:38:54;7.80;74.10
75769;DHT22;64379;48.888;8.330;2024-02-04T07:41:20;7.80;74.00
75769;DHT22;64379;48.888;8.330;2024-02-04T07:43:45;7.80;73.90
75769;DHT22;64379;48.888;8.330;2024-02-04T07:46:11;7.80;74.00
75769;DHT22;64379;48.888;8.330;2024-02-04T07:48:36;7.80;74.00
75769;DHT22;64379;48.888;8.330;2024-02-04T07:51:02;7.80;73.70
75769;DHT22;64379;48.888;8.330;2024-02-04T07:53:28;7.80;73.70
75769;DHT22;64379;48.888;8.330;2024-02-04T07:55:54;7.80;73.50
75769;DHT22;64379;48.888;8.330;2024-02-04T07:58:19;7.90;73.10
75769;DHT22;64379;48.888;8.330;2024-02-04T08:00:45;7.90;73.00
75769;DHT22;64379;48.888;8.330;2024-02-04T08:03:11;8.00;73.00
75769;DHT22;64379;48.888;8.330;2024-02-04T08:05:36;7.90;73.00
75769;DHT22;64379;48.888;8.330;2024-02-04T08:08:02;8.00;73.20
75769;DHT22;64379;48.888;8.330;2024-02-04T08:10:27;8.00;72.90
75769;DHT22;64379;48.888;8.330;2024-02-04T08:12:53;8.00;72.70
75769;DHT22;64379;48.888;8.330;2024-02-04T08:15:20;8.10;72.60
75769;DHT22;64379;48.888;8.330;2024-02-04T08:17:45;8.10;72.30
75769;DHT22;64379;48.888;8.330;2024-02-04T08:20:11;8.10;72.40
75769;DHT22;64379;48.888;8.330;2024-02-04T08:22:37;8.10;72.30
75769;DHT22;64379;48.888;8.330;2024-02-04T08:25:04;8.10;72.40
75769;DHT22;64379;48.888;8.330;2024-02-04T08:27:31;8.10;72.30
75769;DHT22;64379;48.888;8.330;2024-02-04T08:29:56;8.20;72.00
75769;DHT22;64379;48.888;8.330;2024-02-04T08:32:22;8.20;72.40
75769;DHT22;64379;48.888;8.330;2024-02-04T08:34:48;8.20;72.00
75769;DHT22;64379;48.888;8.330;2024-02-04T08:37:13;8.20;71.70
75769;DHT22;64379;48.888;8.330;2024-02-04T08:39:39;8.20;71.70
75769;DHT22;64379;48.888;8.330;2024-02-04T08:42:05;8.30;71.40
75769;DHT22;64379;48.888;8.330;2024-02-04T08:44:30;8.30;71.20
75769;DHT22;64379;48.888;8.330;2024-02-04T08:46:56;8.30;71.20
75769;DHT22;64379;48.888;8.330;2024-02-04T08:49:22;8.50;70.70
75769;DHT22;64379;48.888;8.330;2024-02-04T08:51:47;8.60;70.50
75769;DHT22;64379;48.888;8.330;2024-02-04T08:54:13;8.60;70.30
75769;DHT22;64379;48.888;8.330;2024-02-04T08:56:40;8.70;69.90
75769;DHT22;64379;48.888;8.330;2024-02-04T08:59:05;8.70;69.80
75769;DHT22;64379;48.888;8.330;2024-02-04T09:01:31;8.80;69.60
75769;DHT22;64379;48.888;8.330;2024-02-04T09:03:57;8.80;69.70
75769;DHT22;64379;48.888;8.330;2024-02-04T09:06:23;8.90;69.30
75769;DHT22;64379;48.888;8.330;2024-02-04T09:08:48;8.90;69.10
75769;DHT22;64379;48.888;8.330;2024-02-04T09:11:14;8.90;69.20
75769;DHT22;64379;48.888;8.330;2024-02-04T09:13:44;8.80;69.20
75769;DHT22;64379;48.888;8.330;2024-02-04T09:16:10;8.90;69.30
75769;DHT22;64379;48.888;8.330;2024-02-04T09:18:36;9.00;68.80
75769;DHT22;64379;48.888;8.330;2024-02-04T09:21:02;9.00;68.90
75769;DHT22;64379;48.888;8.330;2024-02-04T09:23:27;9.00;68.60
75769;DHT22;64379;48.888;8.330;2024-02-04T09:25:53;8.90;69.00
75769;DHT22;64379;48.888;8.330;2024-02-04T09:28:19;8.90;69.20
75769;DHT22;64379;48.888;8.330;2024-02-04T09:30:45;8.80;69.30
75769;DHT22;64379;48.888;8.330;2024-02-04T09:33:11;8.80;69.50
75769;DHT22;64379;48.888;8.330;2024-02-04T09:35:37;8.90;69.40
75769;DHT22;64379;48.888;8.330;2024-02-04T09:38:03;8.90;69.30
75769;DHT22;64379;48.888;8.330;2024-02-04T09:40:28;8.80;69.60
75769;DHT22;64379;48.888;8.330;2024-02-04T09:42:56;8.80;69.50
75769;DHT22;64379;48.888;8.330;2024-02-04T09:45:22;8.80;69.70
75769;DHT22;64379;48.888;8.330;2024-02-04T09:47:50;8.80;69.30
75769;DHT22;64379;48.888;8.330;2024-02-04T09:50:19;8.80;69.40
75769;DHT22;64379;48.888;8.330;2024-02-04T09:52:48;8.80;69.50
75769;DHT22;64379;48.888;8.330;2024-02-04T09:55:16;8.80;69.60
75769;DHT22;64379;48.888;8.330;2024-02-04T09:57:42;8.90;69.20
75769;DHT22;64379;48.888;8.330;2024-02-04T10:00:09;9.00;69.00
75769;DHT22;64379;48.888;8.330;2024-02-04T10:02:36;9.00;69.00
75769;DHT22;64379;48.888;8.330;2024-02-04T10:05:01;9.00;68.90
75769;DHT22;64379;48.888;8.330;2024-02-04T10:07:28;9.00;68.90
75769;DHT22;64379;48.888;8.330;2024-02-04T10:09:55;9.10;68.50
75769;DHT22;64379;48.888;8.330;2024-02-04T10:12:20;9.20;68.30
75769;DHT22;64379;48.888;8.330;2024-02-04T10:14:46;9.20;68.30
75769;DHT22;64379;48.888;8.330;2024-02-04T10:17:15;9.20;68.50
75769;DHT22;64379;48.888;8.330;2024-02-04T10:19:40;9.20;68.20
75769;DHT22;64379;48.888;8.330;2024-02-04T10:22:06;9.10;68.40
75769;DHT22;64379;48.888;8.330;2024-02-04T10:24:32;9.00;69.00
75769;DHT22;64379;48.888;8.330;2024-02-04T10:26:58;9.00;69.10
75769;DHT22;64379;48.888;8.330;2024-02-04T10:29:24;8.90;69.10
75769;DHT22;64379;48.888;8.330;2024-02-04T10:31:56;8.90;69.70
75769;DHT22;64379;48.888;8.330;2024-02-04T10:34:23;8.80;69.80
75769;DHT22;64379;48.888;8.330;2024-02-04T10:36:49;8.80;69.90
75769;DHT22;64379;48.888;8.330;2024-02-04T10:39:15;8.80;69.80
75769;DHT22;64379;48.888;8.330;2024-02-04T10:41:50;8.80;69.50
75769;DHT22;64379;48.888;8.330;2024-02-04T10:44:23;8.80;69.50
75769;DHT22;64379;48.888;8.330;2024-02-04T10:46:50;8.80;69.80
75769;DHT22;64379;48.888;8.330;2024-02-04T10:49:18;8.80;69.50
75769;DHT22;64379;48.888;8.330;2024-02-04T10:51:45;8.80;69.50
75769;DHT22;64379;48.888;8.330;2024-02-04T10:54:20;8.90;69.30
75769;DHT22;64379;48.888;8.330;2024-02-04T10:56:56;8.90;69.00
75769;DHT22;64379;48.888;8.330;2024-02-04T10:59:24;8.90;69.40
75769;DHT22;64379;48.888;8.330;2024-02-04T11:01:50;9.00;69.20
75769;DHT22;64379;48.888;8.330;2024-02-04T11:04:17;9.00;68.90
75769;DHT22;64379;48.888;8.330;2024-02-04T11:06:43;9.00;69.00
75769;DHT22;64379;48.888;8.330;2024-02-04T11:09:09;9.10;68.70
75769;DHT22;64379;48.888;8.330;2024-02-04T11:11:37;9.10;68.80
75769;DHT22;64379;48.888;8.330;2024-02-04T11:14:05;9.20;69.00
75769;DHT22;64379;48.888;8.330;2024-02-04T11:25:11;9.00;68.80
75769;DHT22;64379;48.888;8.330;2024-02-04T11:27:41;9.00;69.20
75769;DHT22;64379;48.888;8.330;2024-02-04T11:30:07;9.20;68.80
75769;DHT22;64379;48.888;8.330;2024-02-04T11:32:35;9.20;68.50
75769;DHT22;64379;48.888;8.330;2024-02-04T11:35:01;9.40;68.70
75769;DHT22;64379;48.888;8.330;2024-02-04T11:37:28;9.50;68.30
75769;DHT22;64379;48.888;8.330;2024-02-04T11:39:57;9.40;68.70
75769;DHT22;64379;48.888;8.330;2024-02-04T11:42:23;9.40;69.00
75769;DHT22;64379;48.888;8.330;2024-02-04T11:44:50;9.30;68.80
75769;DHT22;64379;48.888;8.330;2024-02-04T11:47:28;9.20;68.80
75769;DHT22;64379;48.888;8.330;2024-02-04T11:49:54;9.20;69.00
75769;DHT22;64379;48.888;8.330;2024-02-04T11:52:21;9.40;69.00
75769;DHT22;64379;48.888;8.330;2024-02-04T11:54:47;9.40;68.60
75769;DHT22;64379;48.888;8.330;2024-02-04T11:57:14;9.40;68.90
75769;DHT22;64379;48.888;8.330;2024-02-04T11:59:42;9.50;68.70
75769;DHT22;64379;48.888;8.330;2024-02-04T12:02:07;9.40;68.70
75769;DHT22;64379;48.888;8.330;2024-02-04T12:04:33;9.20;69.20
75769;DHT22;64379;48.888;8.330;2024-02-04T12:07:00;9.20;69.50
75769;DHT22;64379;48.888;8.330;2024-02-04T12:09:26;9.40;69.40
75769;DHT22;64379;48.888;8.330;2024-02-04T12:11:54;9.40;69.10
75769;DHT22;64379;48.888;8.330;2024-02-04T12:14:19;9.40;69.20
75769;DHT22;64379;48.888;8.330;2024-02-04T12:16:46;9.30;69.50
75769;DHT22;64379;48.888;8.330;2024-02-04T12:19:12;9.30;69.50
75769;DHT22;64379;48.888;8.330;2024-02-04T12:21:38;9.20;69.90
75769;DHT22;64379;48.888;8.330;2024-02-04T12:24:05;9.30;70.00
75769;DHT22;64379;48.888;8.330;2024-02-04T12:26:31;9.40;69.90
75769;DHT22;64379;48.888;8.330;2024-02-04T12:28:56;9.30;70.00
75769;DHT22;64379;48.888;8.330;2024-02-04T12:31:25;9.20;70.10
75769;DHT22;64379;48.888;8.330;2024-02-04T12:33:55;9.20;70.40
75769;DHT22;64379;48.888;8.330;2024-02-04T12:36:26;9.20;70.50
75769;DHT22;64379;48.888;8.330;2024-02-04T12:38:53;9.20;70.50
75769;DHT22;64379;48.888;8.330;2024-02-04T12:41:19;9.20;70.40
75769;DHT22;64379;48.888;8.330;2024-02-04T12:43:52;9.20;70.70
75769;DHT22;64379;48.888;8.330;2024-02-04T12:46:19;9.20;70.50
75769;DHT22;64379;48.888;8.330;2024-02-04T12:48:45;9.30;70.50
75769;DHT22;64379;48.888;8.330;2024-02-04T12:54:12;9.30;70.70
75769;DHT22;64379;48.888;8.330;2024-02-04T12:56:53;9.20;70.70
75769;DHT22;64379;48.888;8.330;2024-02-04T13:02:05;9.20;71.20
75769;DHT22;64379;48.888;8.330;2024-02-04T13:04:35;9.30;71.20
75769;DHT22;64379;48.888;8.330;2024-02-04T13:07:01;9.40;71.00
75769;DHT22;64379;48.888;8.330;2024-02-04T13:09:26;9.40;71.00
75769;DHT22;64379;48.888;8.330;2024-02-04T13:12:02;9.40;71.10
75769;DHT22;64379;48.888;8.330;2024-02-04T13:14:28;9.40;71.10
75769;DHT22;64379;48.888;8.330;2024-02-04T13:16:53;9.40;71.10
75769;DHT22;64379;48.888;8.330;2024-02-04T13:19:19;9.40;71.10
75769;DHT22;64379;48.888;8.330;2024-02-04T13:21:44;9.40;71.20
75769;DHT22;64379;48.888;8.330;2024-02-04T13:24:10;9.40;71.30
75769;DHT22;64379;48.888;8.330;2024-02-04T13:26:37;9.40;71.10
75769;DHT22;64379;48.888;8.330;2024-02-04T13:29:02;9.40;71.20
75769;DHT22;64379;48.888;8.330;2024-02-04T13:31:28;9.40;71.10
75769;DHT22;64379;48.888;8.330;2024-02-04T13:33:54;9.50;70.90
75769;DHT22;64379;48.888;8.330;2024-02-04T13:36:20;9.50;70.70
75769;DHT22;64379;48.888;8.330;2024-02-04T13:38:45;9.50;70.80
75769;DHT22;64379;48.888;8.330;2024-02-04T13:41:11;9.60;70.80
75769;DHT22;64379;48.888;8.330;2024-02-04T13:43:37;9.60;70.90
75769;DHT22;64379;48.888;8.330;2024-02-04T13:46:02;9.60;70.80
75769;DHT22;64379;48.888;8.330;2024-02-04T13:48:28;9.60;70.70
75769;DHT22;64379;48.888;8.330;2024-02-04T13:50:54;9.60;70.90
75769;DHT22;64379;48.888;8.330;2024-02-04T13:53:20;9.60;71.00
75769;DHT22;64379;48.888;8.330;2024-02-04T13:55:47;9.60;71.10
75769;DHT22;64379;48.888;8.330;2024-02-04T13:58:12;9.60;71.50
75769;DHT22;64379;48.888;8.330;2024-02-04T14:00:39;9.50;71.70
75769;DHT22;64379;48.888;8.330;2024-02-04T14:03:05;9.50;71.90
75769;DHT22;64379;48.888;8.330;2024-02-04T14:05:32;9.50;72.10
75769;DHT22;64379;48.888;8.330;2024-02-04T14:07:58;9.50;72.60
75769;DHT22;64379;48.888;8.330;2024-02-04T14:10:23;9.50;72.40
75769;DHT22;64379;48.888;8.330;2024-02-04T14:12:49;9.60;72.30
75769;DHT22;64379;48.888;8.330;2024-02-04T14:15:15;9.60;72.50
75769;DHT22;64379;48.888;8.330;2024-02-04T14:17:42;9.50;72.50
75769;DHT22;64379;48.888;8.330;2024-02-04T14:20:08;9.50;72.60
75769;DHT22;64379;48.888;8.330;2024-02-04T14:22:34;9.50;72.80
75769;DHT22;64379;48.888;8.330;2024-02-04T14:25:00;9.50;72.70
75769;DHT22;64379;48.888;8.330;2024-02-04T14:27:26;9.50;72.70
75769;DHT22;64379;48.888;8.330;2024-02-04T14:29:51;9.50;72.80
75769;DHT22;64379;48.888;8.330;2024-02-04T14:32:17;9.60;72.20
75769;DHT22;64379;48.888;8.330;2024-02-04T14:34:44;9.60;72.20
75769;DHT22;64379;48.888;8.330;2024-02-04T14:37:09;9.60;72.10
75769;DHT22;64379;48.888;8.330;2024-02-04T14:39:36;9.70;72.10
75769;DHT22;64379;48.888;8.330;2024-02-04T14:42:02;9.70;72.00
75769;DHT22;64379;48.888;8.330;2024-02-04T14:44:28;9.70;72.20
75769;DHT22;64379;48.888;8.330;2024-02-04T14:46:54;9.60;72.20
75769;DHT22;64379;48.888;8.330;2024-02-04T14:49:20;9.60;72.40
75769;DHT22;64379;48.888;8.330;2024-02-04T14:51:45;9.60;72.70
75769;DHT22;64379;48.888;8.330;2024-02-04T14:54:11;9.60;72.60
75769;DHT22;64379;48.888;8.330;2024-02-04T14:56:38;9.60;72.70
75769;DHT22;64379;48.888;8.330;2024-02-04T14:59:04;9.50;72.80
75769;DHT22;64379;48.888;8.330;2024-02-04T15:01:30;9.60;72.80
75769;DHT22;64379;48.888;8.330;2024-02-04T15:03:55;9.50;72.80
75769;DHT22;64379;48.888;8.330;2024-02-04T15:06:21;9.50;72.80
75769;DHT22;64379;48.888;8.330;2024-02-04T15:08:47;9.50;72.90
75769;DHT22;64379;48.888;8.330;2024-02-04T15:11:13;9.50;72.60
75769;DHT22;64379;48.888;8.330;2024-02-04T15:13:38;9.50;72.80
75769;DHT22;64379;48.888;8.330;2024-02-04T15:16:05;9.50;72.40
75769;DHT22;64379;48.888;8.330;2024-02-04T15:18:32;9.50;72.40
75769;DHT22;64379;48.888;8.330;2024-02-04T15:20:59;9.40;72.30
75769;DHT22;64379;48.888;8.330;2024-02-04T15:23:24;9.40;72.30
75769;DHT22;64379;48.888;8.330;2024-02-04T15:25:52;9.40;72.10
75769;DHT22;64379;48.888;8.330;2024-02-04T15:28:18;9.40;72.30
75769;DHT22;64379;48.888;8.330;2024-02-04T15:30:44;9.40;72.40
75769;DHT22;64379;48.888;8.330;2024-02-04T15:33:11;9.40;72.40
75769;DHT22;64379;48.888;8.330;2024-02-04T15:35:37;9.40;72.40
75769;DHT22;64379;48.888;8.330;2024-02-04T15:38:03;9.40;72.60
75769;DHT22;64379;48.888;8.330;2024-02-04T15:40:29;9.40;72.60
75769;DHT22;64379;48.888;8.330;2024-02-04T15:42:54;9.40;72.60
75769;DHT22;64379;48.888;8.330;2024-02-04T15:45:20;9.40;72.60
75769;DHT22;64379;48.888;8.330;2024-02-04T15:47:50;9.30;72.60
75769;DHT22;64379;48.888;8.330;2024-02-04T15:50:22;9.30;72.90
75769;DHT22;64379;48.888;8.330;2024-02-04T15:52:49;9.40;72.80
75769;DHT22;64379;48.888;8.330;2024-02-04T15:55:16;9.30;72.90